Terminal Aerodrome Forecast
Issued by NWS Cleveland, OH

Home | Current Version | Previous Version | Graphics & Text | Print | Product List | Glossary On
Versions: 1 2 3 4 5 6 7 8 9 10 11 12 13 14 15
416
FTUS41 KCLE 182337
TAFMFD
TAF
KMFD 182337Z 1900/1924 13002KT P6SM FEW040
     FM190200 15003KT P6SM FEW250
     FM191000 24004KT 5SM BR FEW250
     FM191300 26005KT P6SM SCT250
     FM191700 27006KT P6SM SCT040=

USA.gov is the U.S. government's official web portal to all federal, state and local government web resources and services.